KBJJ/BJJ METAR and TAF weather

Enter ICAO airport designator
Station Type Date Time Source
KBJJ METAR 2018/04/21 20:56 UTC NOAA

KBJJ 212056Z AUTO 04003KT 10SM CLR 13/M06 A3038 RMK AO2 SLP295 T01281061 58017


Station Type Date Time Source
KBJJ Decoded METAR 2018/04/21 20:56 UTC NOAA

WOOSTER WAYNE COUNTY AIRPORT, OH, United States (KBJJ) 40-52N 81-53W 343M
Apr 21, 2018 - 04:56 PM EDT / 2018.04.21 2056 UTC
Wind: from the NE (040 degrees) at 3 MPH (3 KT):0
Visibility: 10 mile(s):0
Sky conditions: clear
Temperature: 55.0 F (12.8 C)
Dew Point: 21.0 F (-6.1 C)
Relative Humidity: 26%
Pressure (altimeter): 30.38 in. Hg (1028 hPa)
Pressure tendency: 0.05 inches (1.7 hPa) lower than three hours ago
ob: KBJJ 212056Z AUTO 04003KT 10SM CLR 13/M06 A3038 RMK AO2 SLP295 T01281061 58017
cycle: 21

Station Type Date Time Source
KBJJ TAF UTC NOAA

Error!


Example: see airport list